CSS3 weather

Montreal / Les Cèdres Airport
Montréal, Quebec, Canada

Public forecast

Using degrees Celsius for public forecast. Weather courtesy of forecast.io.

Closest aviation weather report (METAR) to Montreal / Les Cèdres Airport

Closest report is Montreal / Pierre Elliott Trudeau International Airport, 16.0 nm (29.6 km) ENE. Retrieved 2020/05/26 05:00 UTC (6 minutes ago):

CYUL 260500Z 15003KT 15SM FEW038 19/15 A3008 RMK SC1 SC TR SLP186 DENSITY ALT 400FT

Closest aviation forecast (TAF) to Montreal / Les Cèdres Airport

Closest forecast is Montreal / Pierre Elliott Trudeau International Airport, 16.0 nm (29.6 km) ENE. Retrieved 2020-05-26 03:48 UTC (1 hour ago):

TAF TAF CYUL 260238Z 2603/2624 VRB03KT P6SM BKN040 TEMPO 2603/2605 SCT040 FM260500 VRB03KT P6SM FEW250 BECMG 2614/2616 22010KT FM261800 22012KT P6SM SCT050 TEMPO 2622/2624 P6SM VCTS BKN050CB RMK NXT FCST BY 260600Z